Time;durP1;ratioP1;P1;durP2;ratioP2;P2;SDS_P1;SDS_P2;PMS_P1;PMS_P2;Temp;Humidity;BMP_temperature;BMP_pressure;BME280_temperature;BME280_humidity;BME280_pressure;Samples;Min_cycle;Max_cycle;Signal;HPM_P1;HPM_P2
2023/12/02 00:00:24;;;;;;;6.82;2.40;;;;;;;26.12;32.85;97932.53;4345250;33;33495;-60
2023/12/02 00:02:52;;;;;;;5.18;2.62;;;;;;;26.09;32.86;97949.50;4343945;33;34978;-60
2023/12/02 00:05:20;;;;;;;4.72;2.10;;;;;;;26.08;32.88;97952.53;4345090;33;34867;-60
2023/12/02 00:07:47;;;;;;;3.25;2.10;;;;;;;26.04;33.12;97949.56;4345115;33;34269;-60
2023/12/02 00:10:15;;;;;;;4.60;2.45;;;;;;;26.06;32.93;97943.81;4353078;32;34007;-60
2023/12/02 00:12:42;;;;;;;6.10;2.10;;;;;;;26.06;33.06;97941.06;4361785;32;33491;-60
2023/12/02 00:15:10;;;;;;;8.40;2.70;;;;;;;26.03;32.93;97936.19;4362130;32;34158;-60
2023/12/02 00:17:38;;;;;;;4.72;1.92;;;;;;;26.02;32.92;97932.66;4361807;32;34311;-60
2023/12/02 00:20:06;;;;;;;7.85;2.72;;;;;;;26.03;33.01;97944.41;4362007;32;33102;-60
2023/12/02 00:22:33;;;;;;;10.70;2.90;;;;;;;26.01;33.03;97944.66;4361846;32;34411;-60
2023/12/02 00:25:01;;;;;;;4.57;2.30;;;;;;;25.98;33.09;97953.47;4361704;32;33787;-59
2023/12/02 00:27:28;;;;;;;3.90;1.90;;;;;;;25.95;33.13;97954.03;4361816;32;34766;-60
2023/12/02 00:29:56;;;;;;;6.10;2.45;;;;;;;25.95;33.14;97943.09;4361822;32;33340;-60
2023/12/02 00:32:24;;;;;;;4.05;2.15;;;;;;;25.88;33.21;97937.97;4361738;32;34024;-60
2023/12/02 00:34:56;;;;;;;4.32;2.03;;;;;;;25.83;33.24;97946.19;4361774;32;34992;-60
2023/12/02 00:37:25;;;;;;;6.03;2.37;;;;;;;25.83;33.27;97939.91;4348258;32;34061;-60
2023/12/02 00:39:52;;;;;;;4.35;2.20;;;;;;;25.80;33.30;97927.66;4361970;32;33486;-60
2023/12/02 00:42:20;;;;;;;5.55;2.00;;;;;;;25.75;33.43;97924.12;4361592;32;34085;-60
2023/12/02 00:44:47;;;;;;;9.95;2.15;;;;;;;25.70;33.53;97927.72;4361476;32;34102;-60
2023/12/02 00:47:15;;;;;;;7.07;2.30;;;;;;;25.67;33.64;97934.56;4361854;32;34007;-60
2023/12/02 00:49:43;;;;;;;8.30;2.05;;;;;;;25.64;33.80;97943.31;4361894;32;33517;-60
2023/12/02 00:52:10;;;;;;;5.12;2.37;;;;;;;25.61;33.82;97938.44;4361437;32;34684;-60
2023/12/02 00:54:38;;;;;;;4.72;2.45;;;;;;;25.59;33.84;97931.62;4361534;32;34097;-60
2023/12/02 00:57:05;;;;;;;4.87;2.37;;;;;;;25.57;33.89;97923.72;4361482;32;33710;-60
2023/12/02 00:59:33;;;;;;;5.25;2.00;;;;;;;25.54;33.91;97929.75;4361367;32;34385;-60
2023/12/02 01:02:01;;;;;;;7.70;2.20;;;;;;;25.53;33.83;97947.25;4361714;32;34075;-60
2023/12/02 01:04:28;;;;;;;5.32;2.10;;;;;;;25.51;33.96;97944.00;4361377;32;34063;-60
2023/12/02 01:06:56;;;;;;;3.70;2.05;;;;;;;25.48;33.95;97933.63;4361249;32;33960;-60
2023/12/02 01:09:23;;;;;;;9.55;2.53;;;;;;;25.46;34.00;97924.94;4361071;32;33514;-60
2023/12/02 01:11:51;;;;;;;5.30;2.97;;;;;;;25.45;34.00;97918.63;4361252;32;33860;-61
2023/12/02 01:14:19;;;;;;;5.30;2.15;;;;;;;25.43;34.05;97928.22;4362681;32;34562;-60
2023/12/02 01:16:46;;;;;;;3.65;1.92;;;;;;;25.41;34.04;97925.78;4363399;32;33593;-60
2023/12/02 01:19:14;;;;;;;5.30;2.12;;;;;;;25.39;34.06;97929.88;4363451;32;33239;-60
2023/12/02 01:21:42;;;;;;;3.75;2.12;;;;;;;25.37;34.11;97918.44;4363086;32;34847;-60
2023/12/02 01:24:09;;;;;;;7.32;2.30;;;;;;;25.35;34.08;97902.31;4362915;32;34786;-60
2023/12/02 01:26:37;;;;;;;7.97;2.03;;;;;;;25.33;34.19;97912.72;4363139;32;34866;-60
2023/12/02 01:29:04;;;;;;;6.30;2.10;;;;;;;25.32;34.33;97919.28;4362897;32;33516;-60
2023/12/02 01:31:32;;;;;;;7.62;2.47;;;;;;;25.31;34.35;97914.09;4363246;32;33254;-60
2023/12/02 01:33:59;;;;;;;5.85;2.17;;;;;;;25.30;34.30;97915.22;4363036;32;34082;-60
2023/12/02 01:36:27;;;;;;;6.03;2.67;;;;;;;25.27;34.32;97910.31;4362781;32;33990;-60
2023/12/02 01:38:55;;;;;;;6.25;2.22;;;;;;;25.27;34.32;97893.91;4363074;32;33512;-60
2023/12/02 01:41:23;;;;;;;6.65;2.20;;;;;;;25.25;34.36;97898.88;4363228;32;34328;-60
2023/12/02 01:43:51;;;;;;;3.00;1.70;;;;;;;25.25;34.32;97909.78;4362831;32;34924;-60
2023/12/02 01:46:18;;;;;;;3.28;1.90;;;;;;;25.22;34.33;97908.44;4362831;32;35044;-60
2023/12/02 01:49:03;;;;;;;4.10;2.08;;;;;;;25.21;34.34;97911.44;4362752;32;33620;-60
2023/12/02 01:51:31;;;;;;;6.95;1.90;;;;;;;25.18;34.30;97900.00;4349774;32;34678;-60
2023/12/02 01:53:59;;;;;;;3.90;1.87;;;;;;;25.16;34.34;97899.47;4362942;32;34216;-60
2023/12/02 01:56:26;;;;;;;5.45;2.08;;;;;;;25.16;34.37;97912.28;4362984;32;34180;-59
2023/12/02 01:58:54;;;;;;;4.62;2.17;;;;;;;25.13;34.40;97910.97;4362880;32;34222;-60
2023/12/02 02:01:22;;;;;;;4.72;2.20;;;;;;;25.12;34.42;97895.66;4362846;32;34083;-60
2023/12/02 02:03:50;;;;;;;4.53;2.20;;;;;;;25.11;34.41;97880.41;4362620;32;34066;-61
2023/12/02 02:06:17;;;;;;;3.62;1.75;;;;;;;25.10;34.42;97891.59;4349247;32;33680;-60
2023/12/02 02:08:45;;;;;;;4.15;1.80;;;;;;;25.08;34.45;97891.88;4362792;32;34274;-60
2023/12/02 02:11:12;;;;;;;2.97;1.60;;;;;;;25.07;34.42;97879.34;4362450;32;33992;-60
2023/12/02 02:13:40;;;;;;;4.20;2.10;;;;;;;25.05;34.37;97870.59;4362719;32;34205;-59
2023/12/02 02:16:07;;;;;;;5.03;2.10;;;;;;;25.03;34.44;97855.59;4362710;32;33856;-60
2023/12/02 02:18:36;;;;;;;3.17;1.90;;;;;;;25.01;34.45;97853.16;4362665;32;33084;-60
2023/12/02 02:21:04;;;;;;;5.07;2.28;;;;;;;25.01;34.59;97834.06;4361785;32;34146;-60
2023/12/02 02:23:31;;;;;;;7.00;1.95;;;;;;;25.00;34.65;97869.81;4362642;32;34045;-61
2023/12/02 02:25:59;;;;;;;5.32;2.00;;;;;;;24.98;34.67;97883.72;4362106;32;34071;-60
2023/12/02 02:28:27;;;;;;;6.40;2.05;;;;;;;24.98;34.68;97863.81;4362660;32;33375;-60
2023/12/02 02:30:54;;;;;;;5.43;2.00;;;;;;;24.95;34.74;97854.31;4362176;32;34014;-60
2023/12/02 02:33:22;;;;;;;5.22;2.30;;;;;;;24.93;34.73;97870.94;4362497;32;34016;-60
2023/12/02 02:35:50;;;;;;;4.65;1.80;;;;;;;24.92;34.72;97866.59;4362448;32;34911;-60
2023/12/02 02:38:17;;;;;;;6.07;1.90;;;;;;;24.92;34.75;97852.94;4360245;32;35257;-60
2023/12/02 02:40:45;;;;;;;4.85;1.87;;;;;;;24.92;34.69;97844.75;4349050;32;34753;-60
2023/12/02 02:43:13;;;;;;;5.47;1.90;;;;;;;24.90;34.67;97851.56;4362444;32;34702;-60
2023/12/02 02:45:41;;;;;;;4.20;1.90;;;;;;;24.89;34.62;97860.88;4362470;32;34172;-60
2023/12/02 02:48:08;;;;;;;7.65;1.92;;;;;;;24.89;34.67;97850.75;4362434;32;33280;-60
2023/12/02 02:50:55;;;;;;;4.03;1.80;;;;;;;24.88;34.64;97849.16;4362517;32;34035;-60
2023/12/02 02:53:23;;;;;;;6.93;2.30;;;;;;;24.88;34.68;97854.59;4362285;32;35118;-61
2023/12/02 02:55:50;;;;;;;3.78;1.83;;;;;;;24.84;34.58;97858.97;4362541;32;34771;-60
2023/12/02 02:58:17;;;;;;;4.20;2.00;;;;;;;24.85;34.59;97859.81;4362581;32;34271;-60
2023/12/02 03:00:45;;;;;;;3.45;1.87;;;;;;;24.83;34.64;97862.00;4362245;32;33232;-60
2023/12/02 03:03:13;;;;;;;4.50;2.12;;;;;;;24.81;34.69;97850.56;4362479;32;34026;-60
2023/12/02 03:05:40;;;;;;;4.97;2.30;;;;;;;24.79;34.67;97847.28;4362328;32;34498;-60
2023/12/02 03:08:08;;;;;;;4.97;1.95;;;;;;;24.79;34.68;97845.38;4362006;32;33551;-60
2023/12/02 03:10:36;;;;;;;4.55;1.77;;;;;;;24.78;34.72;97842.94;4362277;32;34013;-60
2023/12/02 03:13:03;;;;;;;7.82;2.65;;;;;;;24.77;34.80;97830.41;4362368;32;33402;-60
2023/12/02 03:15:31;;;;;;;4.35;1.60;;;;;;;24.76;34.83;97837.78;4362332;32;33923;-60
2023/12/02 03:17:59;;;;;;;3.17;1.87;;;;;;;24.77;34.98;97838.59;4362567;32;33555;-60
2023/12/02 03:20:26;;;;;;;3.15;1.67;;;;;;;24.76;34.92;97845.13;4362295;32;34800;-60
2023/12/02 03:22:54;;;;;;;4.10;1.98;;;;;;;24.74;34.92;97839.16;4362270;32;34015;-60
2023/12/02 03:25:21;;;;;;;5.07;1.83;;;;;;;24.73;34.86;97841.06;4362148;32;34193;-60
2023/12/02 03:27:49;;;;;;;3.80;1.80;;;;;;;24.73;34.87;97834.81;4362279;32;33795;-60
2023/12/02 03:30:19;;;;;;;3.28;1.70;;;;;;;24.71;34.88;97854.16;4362127;32;33974;-60
2023/12/02 03:32:47;;;;;;;3.58;1.87;;;;;;;24.71;34.92;97850.63;4362229;32;34158;-60
2023/12/02 03:35:14;;;;;;;3.65;2.03;;;;;;;24.69;34.93;97854.44;4362009;32;33804;-60
2023/12/02 03:37:42;;;;;;;2.62;1.50;;;;;;;24.69;34.95;97840.00;4362133;32;33476;-60
2023/12/02 03:40:10;;;;;;;3.78;1.92;;;;;;;24.68;34.88;97825.56;4362463;32;33957;-60
2023/12/02 03:42:37;;;;;;;3.20;1.70;;;;;;;24.66;34.90;97819.53;4362331;32;34029;-60
2023/12/02 03:45:06;;;;;;;5.80;1.83;;;;;;;24.67;34.93;97829.37;4362330;32;34667;-60
2023/12/02 03:47:34;;;;;;;2.97;1.70;;;;;;;24.65;34.96;97815.19;4362164;32;33367;-60
2023/12/02 03:50:01;;;;;;;3.12;1.80;;;;;;;24.64;34.90;97824.47;4361917;32;33495;-60
2023/12/02 03:52:30;;;;;;;4.30;1.95;;;;;;;24.62;34.93;97810.31;4362219;32;34235;-60
2023/12/02 03:54:57;;;;;;;4.07;1.73;;;;;;;24.61;35.00;97800.50;4362352;32;33913;-60
2023/12/02 03:57:25;;;;;;;4.07;1.70;;;;;;;24.61;35.02;97811.41;4362019;32;33532;-60
2023/12/02 03:59:53;;;;;;;2.60;1.52;;;;;;;24.59;34.97;97802.69;4362154;32;33737;-60
2023/12/02 04:02:20;;;;;;;3.25;1.48;;;;;;;24.59;35.00;97812.78;4362209;32;33982;-60
2023/12/02 04:04:48;;;;;;;3.72;2.10;;;;;;;24.57;34.95;97812.25;4361936;32;34005;-60
2023/12/02 04:07:15;;;;;;;3.05;1.62;;;;;;;24.58;34.97;97809.25;4361954;32;33466;-59
2023/12/02 04:09:43;;;;;;;4.00;1.70;;;;;;;24.57;35.02;97823.97;4361880;32;34770;-60
2023/12/02 04:12:11;;;;;;;4.75;1.90;;;;;;;24.56;35.00;97818.81;4361761;32;34170;-60
2023/12/02 04:14:38;;;;;;;7.05;1.58;;;;;;;24.55;35.03;97812.53;4362094;32;33760;-60
2023/12/02 04:17:06;;;;;;;6.30;1.45;;;;;;;24.54;35.01;97819.09;4361997;32;33380;-60
2023/12/02 04:19:33;;;;;;;3.10;1.80;;;;;;;24.53;35.08;97822.91;4361717;32;33519;-60
2023/12/02 04:22:01;;;;;;;7.72;1.87;;;;;;;24.52;35.08;97818.53;4361889;32;34982;-60
2023/12/02 04:24:28;;;;;;;6.25;2.00;;;;;;;24.51;35.15;97822.38;4361946;32;33609;-60
2023/12/02 04:26:56;;;;;;;2.83;1.60;;;;;;;24.51;35.15;97816.09;4361648;32;34078;-60
2023/12/02 04:29:24;;;;;;;3.12;1.52;;;;;;;24.51;35.10;97832.47;4361794;32;33835;-61
2023/12/02 04:31:51;;;;;;;3.28;1.60;;;;;;;24.49;35.16;97821.84;4362033;32;34091;-60
2023/12/02 04:34:19;;;;;;;2.78;1.62;;;;;;;24.48;35.25;97825.69;4361305;32;34062;-60
2023/12/02 04:36:47;;;;;;;4.47;1.80;;;;;;;24.48;35.20;97813.94;4361832;32;33619;-60
2023/12/02 04:39:14;;;;;;;4.32;1.80;;;;;;;24.47;35.21;97817.75;4361417;32;33667;-60
2023/12/02 04:41:42;;;;;;;4.47;1.52;;;;;;;24.46;35.26;97821.59;4361520;32;34134;-59
2023/12/02 04:44:10;;;;;;;4.07;1.83;;;;;;;24.46;35.25;97808.78;4361606;32;34814;-60
2023/12/02 04:46:37;;;;;;;7.37;1.77;;;;;;;24.46;35.25;97813.41;4361835;32;33412;-60
2023/12/02 04:49:05;;;;;;;4.35;1.58;;;;;;;24.45;35.26;97804.41;4360862;32;34838;-60
2023/12/02 04:51:32;;;;;;;3.60;1.90;;;;;;;24.44;35.33;97802.78;4361551;32;34946;-60
2023/12/02 04:54:00;;;;;;;4.20;1.60;;;;;;;24.43;35.25;97812.03;4361720;32;33945;-60
2023/12/02 04:56:27;;;;;;;3.37;1.77;;;;;;;24.43;35.28;97807.44;4361343;32;34197;-60
2023/12/02 04:58:56;;;;;;;4.32;1.70;;;;;;;24.42;35.33;97799.53;4361573;32;33673;-60
2023/12/02 05:01:23;;;;;;;4.37;1.70;;;;;;;24.40;35.35;97802.53;4361538;32;33953;-59
2023/12/02 05:03:51;;;;;;;3.83;1.90;;;;;;;24.40;35.33;97779.91;4361157;32;34781;-60
2023/12/02 05:06:18;;;;;;;3.35;1.62;;;;;;;24.39;35.36;97778.28;4361423;32;33667;-60
2023/12/02 05:08:46;;;;;;;3.08;1.67;;;;;;;24.37;35.42;97784.00;4361456;32;34062;-60
2023/12/02 05:11:20;;;;;;;4.05;1.45;;;;;;;24.37;35.46;97781.28;4347996;32;33660;-60
2023/12/02 05:13:48;;;;;;;5.12;1.62;;;;;;;24.35;35.48;97780.72;4361407;32;34360;-60
2023/12/02 05:16:16;;;;;;;2.67;1.75;;;;;;;24.36;35.40;97778.81;4361281;32;33650;-60
2023/12/02 05:18:43;;;;;;;3.08;1.60;;;;;;;24.34;35.44;97770.09;4361269;32;33974;-60
2023/12/02 05:21:11;;;;;;;4.00;1.80;;;;;;;24.34;35.43;97775.53;4361223;32;34202;-60
2023/12/02 05:23:40;;;;;;;5.95;1.83;;;;;;;24.33;35.44;97782.91;4361026;32;34794;-59
2023/12/02 05:26:08;;;;;;;3.50;1.60;;;;;;;24.33;35.47;97787.53;4361442;32;33546;-60
2023/12/02 05:28:35;;;;;;;3.67;1.60;;;;;;;24.32;35.46;97775.84;4361070;32;33751;-60
2023/12/02 05:31:03;;;;;;;5.75;1.70;;;;;;;24.31;35.52;97781.56;4360925;32;33928;-60
2023/12/02 05:33:31;;;;;;;2.10;1.50;;;;;;;24.31;35.51;97774.22;4361057;32;33993;-60
2023/12/02 05:35:59;;;;;;;6.72;1.75;;;;;;;24.31;35.49;97770.66;4361015;32;34209;-60
2023/12/02 05:38:27;;;;;;;3.17;1.58;;;;;;;24.30;35.59;97779.94;4360926;32;33671;-60
2023/12/02 05:40:55;;;;;;;3.45;1.70;;;;;;;24.29;35.52;97768.19;4361062;32;33994;-60
2023/12/02 05:43:22;;;;;;;3.95;1.80;;;;;;;24.27;35.57;97769.59;4361004;32;34767;-60
2023/12/02 05:45:51;;;;;;;5.00;1.85;;;;;;;24.28;35.60;97776.66;4360676;32;34368;-60
2023/12/02 05:48:21;;;;;;;6.12;1.62;;;;;;;24.26;35.64;97782.41;4360856;32;34810;-59
2023/12/02 05:50:48;;;;;;;2.87;1.62;;;;;;;24.26;35.63;97778.88;4360804;32;33991;-60
2023/12/02 05:53:16;;;;;;;3.45;1.50;;;;;;;24.24;35.59;97786.50;4360511;32;34163;-60
2023/12/02 05:55:44;;;;;;;5.50;1.70;;;;;;;24.24;35.62;97776.41;4360772;32;33810;-60
2023/12/02 05:58:11;;;;;;;3.42;1.50;;;;;;;24.23;35.64;97782.97;4360704;32;34129;-60
2023/12/02 06:00:39;;;;;;;3.50;1.67;;;;;;;24.23;35.63;97768.53;4361661;32;34941;-60
2023/12/02 06:03:06;;;;;;;5.25;1.80;;;;;;;24.22;35.70;97777.81;4362819;32;33669;-60
2023/12/02 06:05:34;;;;;;;5.03;1.90;;;;;;;24.21;35.73;97759.84;4362820;32;33356;-60
2023/12/02 06:08:01;;;;;;;2.90;1.60;;;;;;;24.22;35.68;97758.72;4362791;32;33448;-60
2023/12/02 06:10:29;;;;;;;4.35;1.62;;;;;;;24.20;35.69;97764.44;4362784;32;34120;-60
2023/12/02 06:12:57;;;;;;;7.87;1.70;;;;;;;24.20;35.71;97778.06;4362855;32;33836;-60
2023/12/02 06:15:24;;;;;;;3.72;1.48;;;;;;;24.19;35.73;97792.78;4362724;32;32689;-60
2023/12/02 06:17:56;;;;;;;4.70;1.62;;;;;;;24.19;35.75;97801.78;4362583;32;34778;-60
2023/12/02 06:20:24;;;;;;;9.95;1.90;;;;;;;24.18;35.71;97811.06;4362993;32;34243;-60
2023/12/02 06:22:52;;;;;;;4.78;1.80;;;;;;;24.18;35.66;97802.88;4362579;32;33893;-60
2023/12/02 06:25:20;;;;;;;3.03;1.67;;;;;;;24.18;35.75;97805.59;4349255;32;33598;-60
2023/12/02 06:27:48;;;;;;;3.85;1.50;;;;;;;24.17;35.75;97803.97;4362639;32;33667;-60
2023/12/02 06:30:17;;;;;;;6.45;1.60;;;;;;;24.16;35.85;97818.69;4362527;32;34569;-60
2023/12/02 06:32:44;;;;;;;5.10;1.75;;;;;;;24.15;35.85;97819.81;4362653;32;33767;-60
2023/12/02 06:35:12;;;;;;;4.57;1.45;;;;;;;24.15;35.85;97816.25;4362528;32;33591;-60
2023/12/02 06:37:40;;;;;;;2.67;1.55;;;;;;;24.14;35.82;97820.87;4362633;32;34040;-60
2023/12/02 06:40:08;;;;;;;2.90;1.70;;;;;;;24.14;35.76;97831.78;4362541;32;34149;-60
2023/12/02 06:42:35;;;;;;;4.37;1.85;;;;;;;24.12;35.61;97838.63;4360313;32;34545;-60
2023/12/02 06:45:05;;;;;;;4.87;2.03;;;;;;;24.10;34.86;97840.78;4360908;32;33845;-60
2023/12/02 06:47:33;;;;;;;5.95;1.85;;;;;;;24.09;35.01;97820.91;4362420;32;33984;-60
2023/12/02 06:50:01;;;;;;;4.65;1.98;;;;;;;24.09;35.10;97815.44;4364878;32;34820;-59
2023/12/02 06:52:29;;;;;;;6.15;1.90;;;;;;;24.09;35.19;97820.09;4362296;32;33307;-60
2023/12/02 06:54:56;;;;;;;5.47;2.17;;;;;;;24.09;35.24;97823.63;4361920;32;33417;-60
2023/12/02 06:57:26;;;;;;;4.30;1.83;;;;;;;24.09;35.32;97823.63;4362034;32;33981;-60
2023/12/02 06:59:54;;;;;;;4.40;1.73;;;;;;;24.07;35.34;97814.94;4362136;32;34014;-60
2023/12/02 07:02:22;;;;;;;4.47;1.80;;;;;;;24.08;35.38;97810.28;4372149;32;33976;-60
2023/12/02 07:04:49;;;;;;;4.35;1.73;;;;;;;24.06;35.45;97812.47;4376856;32;33793;-60
2023/12/02 07:07:18;;;;;;;2.70;1.55;;;;;;;24.06;35.47;97826.09;4377050;32;34221;-60
2023/12/02 07:09:46;;;;;;;2.62;1.40;;;;;;;24.07;35.47;97828.53;4376856;32;34936;-60
2023/12/02 07:12:13;;;;;;;3.40;1.85;;;;;;;24.06;35.46;97820.63;4364327;32;34028;-60
2023/12/02 07:14:41;;;;;;;4.72;1.60;;;;;;;24.06;35.48;97824.19;4362387;32;34569;-60
2023/12/02 07:17:09;;;;;;;4.03;2.00;;;;;;;24.06;35.51;97842.44;4362099;32;34712;-59
2023/12/02 07:19:36;;;;;;;2.80;1.67;;;;;;;24.05;35.50;97825.28;4362056;32;34888;-60
2023/12/02 07:22:04;;;;;;;3.17;1.90;;;;;;;24.05;35.60;97814.37;4362255;32;34103;-60
2023/12/02 07:24:31;;;;;;;4.57;2.00;;;;;;;24.06;35.55;97824.19;4362027;32;33234;-60
2023/12/02 07:26:59;;;;;;;3.42;1.77;;;;;;;24.04;35.62;97815.47;4361955;32;34740;-60
2023/12/02 07:29:27;;;;;;;3.17;1.52;;;;;;;24.04;35.64;97818.19;4361988;32;34942;-59
2023/12/02 07:31:57;;;;;;;3.47;1.70;;;;;;;24.04;35.63;97801.84;4361962;32;34245;-60
2023/12/02 07:34:24;;;;;;;3.25;1.80;;;;;;;24.04;35.69;97806.47;4361950;32;33689;-60
2023/12/02 07:36:52;;;;;;;3.05;1.70;;;;;;;24.03;35.72;97805.69;4361833;32;34789;-60
2023/12/02 07:39:19;;;;;;;3.83;1.80;;;;;;;24.03;35.67;97815.75;4374643;32;34078;-58
2023/12/02 07:41:47;;;;;;;3.12;1.50;;;;;;;24.02;35.71;97809.50;4376794;32;34137;-60
2023/12/02 07:44:17;;;;;;;3.53;1.73;;;;;;;24.02;35.76;97805.97;4376871;32;34038;-61
2023/12/02 07:46:44;;;;;;;2.83;1.40;;;;;;;24.02;35.73;97804.06;4376830;32;34718;-60
2023/12/02 07:49:12;;;;;;;2.33;1.50;;;;;;;24.02;35.73;97779.53;4376899;32;34580;-60
2023/12/02 07:51:40;;;;;;;3.70;1.70;;;;;;;24.01;35.71;97805.13;4376852;32;33876;-60
2023/12/02 07:54:07;;;;;;;3.75;1.77;;;;;;;24.01;35.76;97794.22;4376811;32;34226;-59
2023/12/02 07:56:36;;;;;;;2.08;1.30;;;;;;;24.00;35.77;97789.88;4376759;32;34459;-60
2023/12/02 07:59:04;;;;;;;3.65;1.40;;;;;;;24.01;35.79;97804.31;4376892;32;33912;-60
2023/12/02 08:01:32;;;;;;;3.40;1.65;;;;;;;24.01;35.70;97785.25;4376709;32;33005;-59
2023/12/02 08:04:00;;;;;;;2.92;1.73;;;;;;;23.99;35.79;97793.69;4376737;32;33467;-60
2023/12/02 08:06:27;;;;;;;3.53;1.60;;;;;;;24.00;35.78;97795.31;4376756;32;33856;-60
2023/12/02 08:08:54;;;;;;;3.50;1.48;;;;;;;23.99;35.79;97801.88;4376280;32;34833;-59
2023/12/02 08:11:22;;;;;;;2.72;1.50;;;;;;;24.00;35.79;97802.69;4369379;32;33206;-60
2023/12/02 08:13:50;;;;;;;3.25;1.70;;;;;;;23.99;35.79;97801.06;4361863;32;33249;-60
2023/12/02 08:16:17;;;;;;;2.72;1.48;;;;;;;23.98;35.87;97808.41;4361664;32;33741;-60
2023/12/02 08:18:45;;;;;;;2.85;1.80;;;;;;;23.99;35.82;97817.41;4361593;32;34967;-59
2023/12/02 08:21:12;;;;;;;3.47;1.67;;;;;;;23.98;35.86;97818.50;4361824;32;34120;-59
2023/12/02 08:23:40;;;;;;;2.67;1.67;;;;;;;23.98;35.83;97829.41;4360674;32;33771;-60
2023/12/02 08:26:08;;;;;;;3.33;1.40;;;;;;;23.98;35.86;97832.94;4361631;32;34175;-60
2023/12/02 08:28:35;;;;;;;3.85;1.50;;;;;;;23.97;35.88;97831.31;4361443;32;34053;-60
2023/12/02 08:31:03;;;;;;;2.47;1.50;;;;;;;23.97;35.87;97830.47;4361356;32;34790;-59
2023/12/02 08:33:31;;;;;;;2.90;1.50;;;;;;;23.97;35.85;97857.72;4361690;32;33129;-60
2023/12/02 08:35:58;;;;;;;3.30;1.70;;;;;;;23.96;35.91;97864.25;4361867;32;33235;-60
2023/12/02 08:38:26;;;;;;;3.28;1.52;;;;;;;23.96;35.90;97875.16;4368377;32;34834;-60
2023/12/02 08:40:53;;;;;;;3.92;1.52;;;;;;;23.96;35.90;97869.69;4376311;32;33890;-59
2023/12/02 08:43:21;;;;;;;1.95;1.40;;;;;;;23.96;35.97;97854.19;4363176;32;32623;-60
2023/12/02 08:45:48;;;;;;;3.25;1.52;;;;;;;23.95;35.94;97855.28;4361396;32;33404;-56
2023/12/02 08:48:16;;;;;;;13.73;7.10;;;;;;;23.95;36.11;97854.47;4361480;32;34818;-63
2023/12/02 08:50:44;;;;;;;14.23;6.53;;;;;;;23.86;32.35;97854.22;4361537;32;34567;-59
2023/12/02 08:53:11;;;;;;;13.45;5.78;;;;;;;23.73;32.25;97854.78;4361416;32;34138;-59
2023/12/02 08:55:39;;;;;;;10.90;5.00;;;;;;;23.66;33.32;97857.78;4361496;32;34113;-59
2023/12/02 08:58:06;;;;;;;10.10;4.57;;;;;;;23.67;33.75;97846.63;4361328;32;33276;-57
2023/12/02 09:00:34;;;;;;;8.20;3.78;;;;;;;23.68;33.90;97845.53;4361246;32;34778;-58
2023/12/02 09:03:02;;;;;;;11.23;4.25;;;;;;;23.72;33.93;97844.97;4361280;32;33394;-58
2023/12/02 09:05:30;;;;;;;8.80;3.25;;;;;;;23.78;33.98;97855.59;4361428;32;33084;-56
2023/12/02 09:08:00;;;;;;;9.48;3.65;;;;;;;23.87;33.96;97842.22;4347728;32;34759;-58
2023/12/02 09:10:28;;;;;;;5.60;3.05;;;;;;;23.98;33.96;97846.56;4360567;32;34268;-60
2023/12/02 09:12:55;;;;;;;13.43;3.62;;;;;;;24.11;33.95;97842.44;4361348;32;33895;-55
2023/12/02 09:15:22;;;;;;;6.47;3.10;;;;;;;24.25;33.90;97837.19;4361055;32;33678;-58
2023/12/02 09:18:05;;;;;;;6.62;3.15;;;;;;;24.35;33.86;97835.25;4361360;32;34169;-58
2023/12/02 09:20:46;;;;;;;8.13;3.15;;;;;;;24.49;33.81;97838.22;4361222;32;33932;-57
2023/12/02 09:23:18;;;;;;;6.18;2.60;;;;;;;24.56;33.75;97827.78;4361447;32;33619;-56
2023/12/02 09:25:45;;;;;;;8.98;2.90;;;;;;;24.63;33.70;97839.22;4361165;32;34141;-56
2023/12/02 09:28:20;;;;;;;10.25;3.00;;;;;;;24.71;33.64;97831.53;4361038;32;34044;-58
2023/12/02 09:30:51;;;;;;;6.57;2.58;;;;;;;24.78;33.60;97837.50;4360913;32;34016;-60
2023/12/02 09:33:35;;;;;;;7.40;2.60;;;;;;;24.83;33.55;97832.81;4361182;32;33244;-58
2023/12/02 09:36:04;;;;;;;6.68;2.53;;;;;;;24.93;33.48;97829.19;4349754;32;33958;-60
2023/12/02 09:38:32;;;;;;;7.87;2.75;;;;;;;25.01;33.44;97828.59;4349404;32;33787;-58
2023/12/02 09:41:04;;;;;;;8.25;2.42;;;;;;;25.14;33.38;97840.81;4363077;32;33944;-56
2023/12/02 09:43:57;;;;;;;6.20;2.45;;;;;;;25.22;33.32;97840.19;4363204;32;34282;-59
2023/12/02 09:46:32;;;;;;;5.53;2.75;;;;;;;25.33;33.20;97835.47;4359346;32;34137;-63
2023/12/02 09:49:26;;;;;;;4.87;2.37;;;;;;;25.41;33.13;97834.84;4353086;32;33848;-63
2023/12/02 09:52:11;;;;;;;10.85;2.67;;;;;;;25.53;33.00;97826.28;4377532;32;34071;-63
2023/12/02 09:54:39;;;;;;;7.62;2.60;;;;;;;25.57;32.99;97838.25;4377736;32;34537;-63
2023/12/02 09:57:22;;;;;;;4.82;2.50;;;;;;;25.62;32.95;97800.78;4377625;32;34028;-62
2023/12/02 09:59:58;;;;;;;4.60;2.62;;;;;;;25.68;32.94;97809.72;4363906;32;33771;-62
2023/12/02 10:02:48;;;;;;;5.85;2.37;;;;;;;25.77;32.87;97791.63;4364224;32;34284;-61
2023/12/02 10:05:16;;;;;;;6.32;2.80;;;;;;;25.85;32.83;97782.81;4365570;32;34534;-63
2023/12/02 10:07:56;;;;;;;6.35;2.58;;;;;;;25.90;32.84;97792.88;4346342;32;35333;-63
2023/12/02 10:10:30;;;;;;;;;;;;;;;25.95;32.87;97784.59;4360664;32;34140;-62
2023/12/02 10:13:16;;;;;;;9.20;3.03;;;;;;;26.11;32.70;97797.00;4345419;32;35035;-62
2023/12/02 10:15:45;;;;;;;7.53;2.72;;;;;;;26.12;32.73;97786.88;4339741;32;33232;-61
2023/12/02 10:18:13;;;;;;;8.68;2.97;;;;;;;26.14;32.71;97787.38;4333269;33;33543;-62
2023/12/02 10:20:42;;;;;;;11.32;2.92;;;;;;;26.15;32.77;97778.88;4346437;33;34836;-62
2023/12/02 10:23:31;;;;;;;7.93;2.90;;;;;;;26.18;32.76;97789.22;4359569;32;34195;-61
2023/12/02 10:26:08;;;;;;;7.97;2.90;;;;;;;26.19;32.76;97790.84;4361598;32;34022;-62
2023/12/02 10:28:41;;;;;;;10.60;3.47;;;;;;;26.22;32.75;97789.47;4359521;32;34073;-61
2023/12/02 10:31:09;;;;;;;18.87;3.60;;;;;;;26.21;32.79;97774.19;4358793;32;34422;-62
2023/12/02 10:33:45;;;;;;;10.70;2.60;;;;;;;26.22;32.84;97769.53;4335490;32;34777;-62
2023/12/02 10:36:12;;;;;;;12.15;3.22;;;;;;;26.20;32.82;97778.81;4347437;32;34661;-62
2023/12/02 10:39:03;;;;;;;11.18;2.87;;;;;;;26.20;32.73;97776.06;4347428;32;34505;-62
2023/12/02 10:41:56;;;;;;;8.55;3.25;;;;;;;26.20;32.74;97794.41;4353582;32;34944;-62
2023/12/02 10:44:25;;;;;;;6.85;2.95;;;;;;;26.18;32.86;97758.34;4353581;32;34600;-62
2023/12/02 10:46:53;;;;;;;11.27;3.33;;;;;;;26.14;32.84;97749.94;4335367;32;34427;-62
2023/12/02 10:49:21;;;;;;;6.68;3.10;;;;;;;26.11;32.89;97739.59;4335152;32;34077;-62
2023/12/02 10:51:50;;;;;;;9.17;3.43;;;;;;;26.10;32.95;97769.94;4348134;32;33934;-63
2023/12/02 10:54:41;;;;;;;9.45;3.08;;;;;;;26.07;32.98;97716.69;4360881;32;34915;-62
2023/12/02 10:57:08;;;;;;;10.95;3.58;;;;;;;26.02;32.99;97760.50;4361110;32;33535;-62
2023/12/02 11:00:07;;;;;;;12.18;4.28;;;;;;;26.00;33.00;97727.16;4360056;32;33880;-61
2023/12/02 11:02:55;;;;;;;7.55;3.42;;;;;;;25.99;33.03;97732.94;4359364;32;33666;-62
2023/12/02 11:05:24;;;;;;;9.75;3.72;;;;;;;25.93;33.10;97716.59;4359745;32;33882;-62
2023/12/02 11:07:55;;;;;;;10.70;3.28;;;;;;;25.87;33.27;97715.00;4360566;32;33331;-62
2023/12/02 11:10:41;;;;;;;10.20;3.70;;;;;;;25.85;33.30;97709.03;4361366;32;34920;-62
2023/12/02 11:13:19;;;;;;;7.85;3.55;;;;;;;25.82;33.35;97700.63;4350787;32;34764;-62
2023/12/02 11:16:20;;;;;;;7.85;3.42;;;;;;;25.79;33.47;97695.75;4361679;32;34084;-62
2023/12/02 11:19:24;;;;;;;10.88;4.10;;;;;;;25.77;33.41;97692.50;4355972;32;34169;-63
2023/12/02 11:21:54;;;;;;;8.35;3.45;;;;;;;25.72;33.50;97704.25;4349523;32;34235;-62
2023/12/02 11:24:50;;;;;;;14.13;3.45;;;;;;;25.64;33.62;97681.12;4361434;32;34077;-62
2023/12/02 11:27:27;;;;;;;7.68;2.75;;;;;;;25.61;33.70;97673.53;4358985;32;33845;-62
2023/12/02 11:30:16;;;;;;;7.68;3.58;;;;;;;25.57;33.77;97683.41;4344508;32;34352;-62
2023/12/02 11:33:09;;;;;;;8.30;3.92;;;;;;;25.54;33.86;97675.78;4360722;32;34730;-62
2023/12/02 11:35:52;;;;;;;8.65;3.95;;;;;;;25.49;33.84;97686.78;4350428;32;33784;-62
2023/12/02 11:38:19;;;;;;;10.52;4.53;;;;;;;25.43;33.81;97677.03;4359806;32;33754;-62
2023/12/02 11:41:21;;;;;;;8.77;3.78;;;;;;;25.39;33.75;97692.37;4364405;32;33397;-61
2023/12/02 11:44:17;;;;;;;6.95;3.80;;;;;;;25.38;33.61;97696.19;4351449;32;33944;-61
2023/12/02 11:47:01;;;;;;;10.32;4.97;;;;;;;25.35;33.50;97715.88;4360749;32;33710;-61